Time;durP1;ratioP1;P1;durP2;ratioP2;P2;SDS_P1;SDS_P2;PMS_P1;PMS_P2;Temp;Humidity;BMP_temperature;BMP_pressure;BME280_temperature;BME280_humidity;BME280_pressure;Samples;Min_cycle;Max_cycle;Signal;HPM_P1;HPM_P2
2023/04/26 00:01:22;;;;;;;0.15;0.15;;;7.00;99.90;;;;;;5094454;28;20662;-60
2023/04/26 00:03:47;;;;;;;0.00;0.00;;;7.00;99.90;;;;;;5094252;28;20214;-60
2023/04/26 00:06:13;;;;;;;0.13;0.13;;;6.90;99.90;;;;;;5094370;28;20181;-60
2023/04/26 00:08:39;;;;;;;0.00;0.00;;;6.90;99.90;;;;;;5094441;28;20187;-60
2023/04/26 00:11:05;;;;;;;0.00;0.00;;;6.90;99.90;;;;;;5094396;28;20168;-60
2023/04/26 00:13:31;;;;;;;0.00;0.00;;;6.90;99.90;;;;;;5094354;28;20181;-60
2023/04/26 00:15:56;;;;;;;0.00;0.00;;;6.80;99.90;;;;;;5076399;28;20287;-60
2023/04/26 00:18:22;;;;;;;0.20;0.20;;;6.70;99.90;;;;;;5094262;28;20180;-60
2023/04/26 00:20:48;;;;;;;0.10;0.10;;;6.70;99.90;;;;;;5094130;28;20172;-60
2023/04/26 00:23:13;;;;;;;0.00;0.00;;;6.60;99.90;;;;;;5093751;28;20233;-60
2023/04/26 00:25:39;;;;;;;0.10;0.10;;;6.60;99.90;;;;;;5092759;28;20179;-60
2023/04/26 00:28:04;;;;;;;0.00;0.00;;;6.50;99.90;;;;;;5094040;28;20701;-60
2023/04/26 00:30:30;;;;;;;0.00;0.00;;;6.50;99.90;;;;;;5093942;28;20188;-59
2023/04/26 00:32:56;;;;;;;0.05;0.05;;;6.40;99.90;;;;;;5093966;28;20686;-60
2023/04/26 00:35:22;;;;;;;0.00;0.00;;;6.40;99.90;;;;;;5093706;28;20276;-60
2023/04/26 00:37:47;;;;;;;0.00;0.00;;;6.40;99.90;;;;;;5093651;28;20223;-60
2023/04/26 00:40:15;;;;;;;0.17;0.17;;;6.30;99.90;;;;;;5093532;28;20180;-60
2023/04/26 00:42:40;;;;;;;0.00;0.00;;;6.20;99.90;;;;;;5093773;28;20180;-60
2023/04/26 00:45:06;;;;;;;0.20;0.20;;;6.20;99.90;;;;;;5093326;28;20218;-61
2023/04/26 00:47:32;;;;;;;0.10;0.10;;;6.20;99.90;;;;;;5093453;28;20256;-59
2023/04/26 00:49:59;;;;;;;0.00;0.00;;;6.10;99.90;;;;;;5092975;28;20555;-59
2023/04/26 00:52:26;;;;;;;0.00;0.00;;;6.10;99.90;;;;;;5092315;28;20192;-60
2023/04/26 00:54:53;;;;;;;0.00;0.00;;;6.00;99.90;;;;;;5092776;28;20541;-60
2023/04/26 00:57:18;;;;;;;0.63;0.63;;;6.00;99.90;;;;;;5091799;28;20637;-60
2023/04/26 00:59:44;;;;;;;0.00;0.00;;;6.00;99.90;;;;;;5092326;28;20216;-60
2023/04/26 01:02:10;;;;;;;0.00;0.00;;;5.90;99.90;;;;;;5092529;28;20176;-60
2023/04/26 01:04:36;;;;;;;1.17;0.47;;;5.90;99.90;;;;;;5093173;28;20305;-60
2023/04/26 01:07:02;;;;;;;0.03;0.03;;;5.90;99.90;;;;;;5093382;28;20271;-60
2023/04/26 01:09:30;;;;;;;0.00;0.00;;;5.80;99.90;;;;;;5093189;28;20568;-60
2023/04/26 01:11:57;;;;;;;0.00;0.00;;;5.80;99.90;;;;;;5093403;28;20168;-59
2023/04/26 01:14:23;;;;;;;0.10;0.10;;;5.80;99.90;;;;;;5093140;28;20570;-60
2023/04/26 01:16:51;;;;;;;0.20;0.20;;;5.80;99.90;;;;;;5093161;28;20168;-60
2023/04/26 01:19:17;;;;;;;0.00;0.00;;;5.80;99.90;;;;;;5093129;28;20173;-60
2023/04/26 01:21:42;;;;;;;0.10;0.10;;;5.90;99.90;;;;;;5099173;28;20170;-59
2023/04/26 01:24:09;;;;;;;0.00;0.00;;;5.90;99.90;;;;;;5112915;28;20231;-60
2023/04/26 01:26:42;;;;;;;0.00;0.00;;;5.90;99.90;;;;;;5113476;28;20636;-59
2023/04/26 01:29:15;;;;;;;0.00;0.00;;;5.90;99.90;;;;;;5111538;28;20205;-59
2023/04/26 01:31:41;;;;;;;0.85;0.22;;;5.90;99.90;;;;;;5093694;28;20173;-60
2023/04/26 01:34:07;;;;;;;0.08;0.08;;;5.90;99.90;;;;;;5092549;28;20185;-59
2023/04/26 01:36:32;;;;;;;0.00;0.00;;;5.90;99.90;;;;;;5092333;28;20226;-59
2023/04/26 01:38:58;;;;;;;0.00;0.00;;;6.00;99.90;;;;;;5092649;28;20179;-59
2023/04/26 01:41:23;;;;;;;0.00;0.00;;;6.00;99.90;;;;;;5091206;28;20172;-60
2023/04/26 01:43:49;;;;;;;0.00;0.00;;;6.00;99.90;;;;;;5076967;28;20216;-59
2023/04/26 01:46:15;;;;;;;0.22;0.22;;;6.00;99.90;;;;;;5092178;28;20652;-59
2023/04/26 01:48:40;;;;;;;0.00;0.00;;;6.10;99.90;;;;;;5092343;28;20175;-59
2023/04/26 01:51:06;;;;;;;0.10;0.10;;;6.10;99.90;;;;;;5091784;28;20262;-60
2023/04/26 01:53:32;;;;;;;0.30;0.30;;;6.10;99.90;;;;;;5092225;28;20635;-59
2023/04/26 01:56:04;;;;;;;0.00;0.00;;;6.10;99.90;;;;;;5092132;28;20369;-59
2023/04/26 01:58:30;;;;;;;0.47;0.47;;;6.20;99.90;;;;;;5091414;28;20542;-59
2023/04/26 02:01:03;;;;;;;0.32;0.32;;;6.20;99.90;;;;;;5091989;28;20164;-59
2023/04/26 02:03:28;;;;;;;0.03;0.03;;;6.20;99.90;;;;;;5091225;28;20199;-59
2023/04/26 02:05:54;;;;;;;0.00;0.00;;;6.20;99.90;;;;;;5091488;28;20790;-59
2023/04/26 02:08:19;;;;;;;0.00;0.00;;;6.20;99.90;;;;;;5090712;28;20172;-59
2023/04/26 02:10:45;;;;;;;0.00;0.00;;;6.20;99.90;;;;;;5091334;28;20238;-59
2023/04/26 02:13:11;;;;;;;0.10;0.10;;;6.20;99.90;;;;;;5091422;28;20192;-59
2023/04/26 02:15:36;;;;;;;0.75;0.75;;;6.20;99.90;;;;;;5091268;28;20164;-59
2023/04/26 02:18:02;;;;;;;0.03;0.03;;;6.20;99.90;;;;;;5091461;28;20176;-59
2023/04/26 02:20:27;;;;;;;0.20;0.20;;;6.20;99.90;;;;;;5091261;28;20296;-59
2023/04/26 02:22:53;;;;;;;0.00;0.00;;;6.20;99.90;;;;;;5091372;28;20258;-59
2023/04/26 02:25:19;;;;;;;0.00;0.00;;;6.20;99.90;;;;;;5091590;28;20188;-59
2023/04/26 02:27:44;;;;;;;0.00;0.00;;;6.10;99.90;;;;;;5091611;28;20190;-60
2023/04/26 02:30:10;;;;;;;0.00;0.00;;;6.10;99.90;;;;;;5091544;28;20184;-60
2023/04/26 02:32:35;;;;;;;0.38;0.38;;;6.10;99.90;;;;;;5091741;28;20175;-60
2023/04/26 02:35:01;;;;;;;0.03;0.03;;;6.00;99.90;;;;;;5091701;28;20207;-60
2023/04/26 02:37:27;;;;;;;0.10;0.10;;;6.00;99.90;;;;;;5091436;28;20183;-59
2023/04/26 02:39:52;;;;;;;0.08;0.08;;;6.00;99.90;;;;;;5091550;28;20230;-59
2023/04/26 02:42:18;;;;;;;0.10;0.10;;;6.00;99.90;;;;;;5091450;28;20263;-59
2023/04/26 02:44:43;;;;;;;0.00;0.00;;;6.00;99.90;;;;;;5091417;28;20211;-59
2023/04/26 02:47:10;;;;;;;0.00;0.00;;;6.00;99.90;;;;;;5091484;28;20612;-59
2023/04/26 02:49:35;;;;;;;0.00;0.00;;;6.00;99.90;;;;;;5091325;28;20172;-59
2023/04/26 02:52:01;;;;;;;0.00;0.00;;;6.00;99.90;;;;;;5091170;28;20187;-59
2023/04/26 02:54:26;;;;;;;0.08;0.08;;;5.90;99.90;;;;;;5091162;28;20700;-59
2023/04/26 02:56:52;;;;;;;0.52;0.52;;;5.80;99.90;;;;;;5089863;28;20172;-59
2023/04/26 02:59:18;;;;;;;0.00;0.00;;;5.80;99.90;;;;;;5090680;28;20179;-60
2023/04/26 03:01:43;;;;;;;0.10;0.10;;;5.80;99.90;;;;;;5091058;28;20207;-60
2023/04/26 03:04:09;;;;;;;0.00;0.00;;;5.80;99.90;;;;;;5090779;28;20306;-60
2023/04/26 03:06:34;;;;;;;0.00;0.00;;;5.80;99.90;;;;;;5090479;28;20176;-59
2023/04/26 03:09:00;;;;;;;0.10;0.10;;;5.80;99.90;;;;;;5090541;28;20191;-60
2023/04/26 03:11:26;;;;;;;0.00;0.00;;;5.90;99.90;;;;;;5090792;28;20595;-60
2023/04/26 03:13:51;;;;;;;0.00;0.00;;;5.80;99.90;;;;;;5090722;28;20275;-60
2023/04/26 03:16:22;;;;;;;0.00;0.00;;;5.90;99.90;;;;;;5090057;28;20247;-60
2023/04/26 03:18:47;;;;;;;0.35;0.35;;;5.80;99.90;;;;;;5090201;28;20180;-60
2023/04/26 03:21:13;;;;;;;0.25;0.25;;;5.80;99.90;;;;;;5090249;28;20636;-60
2023/04/26 03:23:38;;;;;;;0.00;0.00;;;5.80;99.90;;;;;;5089970;28;20224;-60
2023/04/26 03:26:04;;;;;;;0.25;0.25;;;5.80;99.90;;;;;;5090458;28;20188;-60
2023/04/26 03:28:29;;;;;;;0.00;0.00;;;5.80;99.90;;;;;;5089595;28;20207;-60
2023/04/26 03:30:55;;;;;;;0.00;0.00;;;5.70;99.90;;;;;;5090113;28;20180;-60
2023/04/26 03:33:21;;;;;;;0.10;0.10;;;5.70;99.90;;;;;;5090478;28;20183;-62
2023/04/26 03:35:46;;;;;;;0.00;0.00;;;5.70;99.90;;;;;;5089570;28;20297;-61
2023/04/26 03:38:12;;;;;;;0.00;0.00;;;5.60;99.90;;;;;;5089164;28;20176;-60
2023/04/26 03:40:37;;;;;;;0.00;0.00;;;5.60;99.90;;;;;;5090003;28;20179;-60
2023/04/26 03:43:03;;;;;;;0.00;0.00;;;5.50;99.90;;;;;;5089001;28;20557;-59
2023/04/26 03:45:29;;;;;;;0.00;0.00;;;5.50;99.90;;;;;;5090660;28;20192;-60
2023/04/26 03:47:55;;;;;;;0.00;0.00;;;5.50;99.90;;;;;;5089769;28;20198;-59
2023/04/26 03:50:21;;;;;;;0.00;0.00;;;5.50;99.90;;;;;;5089677;28;20180;-59
2023/04/26 03:52:46;;;;;;;0.00;0.00;;;5.40;99.90;;;;;;5090118;28;20176;-59
2023/04/26 03:55:12;;;;;;;0.00;0.00;;;5.40;99.90;;;;;;5089529;28;20258;-61
2023/04/26 03:57:38;;;;;;;0.00;0.00;;;5.30;99.90;;;;;;5090573;28;20314;-59
2023/04/26 04:00:12;;;;;;;0.00;0.00;;;5.30;99.90;;;;;;5090214;28;20222;-59
2023/04/26 04:02:38;;;;;;;0.00;0.00;;;5.30;99.90;;;;;;5089885;28;20175;-60
2023/04/26 04:05:03;;;;;;;0.00;0.00;;;5.20;99.90;;;;;;5088824;28;20215;-61
2023/04/26 04:07:31;;;;;;;0.00;0.00;;;5.10;99.90;;;;;;5089965;28;20704;-61
2023/04/26 04:09:57;;;;;;;0.10;0.10;;;5.10;99.90;;;;;;5089881;28;20284;-64
2023/04/26 04:12:23;;;;;;;0.00;0.00;;;5.00;99.90;;;;;;5090093;28;20181;-66
2023/04/26 04:14:49;;;;;;;0.00;0.00;;;5.00;99.90;;;;;;5089323;28;20183;-60
2023/04/26 04:17:14;;;;;;;0.20;0.20;;;4.90;99.90;;;;;;5089251;28;20208;-60
2023/04/26 04:19:40;;;;;;;0.00;0.00;;;4.90;99.90;;;;;;5089667;28;20222;-60
2023/04/26 04:22:05;;;;;;;0.00;0.00;;;4.90;99.90;;;;;;5090078;28;20233;-60
2023/04/26 04:24:31;;;;;;;0.00;0.00;;;4.90;99.90;;;;;;5090296;28;20770;-60
2023/04/26 04:26:57;;;;;;;0.00;0.00;;;4.90;99.90;;;;;;5090408;28;20172;-60
2023/04/26 04:29:22;;;;;;;0.30;0.30;;;4.90;99.90;;;;;;5090377;28;20169;-60
2023/04/26 04:31:48;;;;;;;0.00;0.00;;;4.80;99.90;;;;;;5092615;28;20263;-60
2023/04/26 04:34:15;;;;;;;0.30;0.30;;;4.90;99.90;;;;;;5093979;28;20172;-60
2023/04/26 04:36:40;;;;;;;0.00;0.00;;;4.80;99.90;;;;;;5094091;28;20195;-60
2023/04/26 04:39:11;;;;;;;0.00;0.00;;;4.80;99.90;;;;;;5093584;28;20643;-60
2023/04/26 04:41:36;;;;;;;0.00;0.00;;;4.80;99.90;;;;;;5093620;28;20251;-60
2023/04/26 04:44:02;;;;;;;0.00;0.00;;;4.80;99.90;;;;;;5092519;28;20294;-60
2023/04/26 04:46:28;;;;;;;0.00;0.00;;;4.80;99.90;;;;;;5093238;28;20610;-60
2023/04/26 04:48:54;;;;;;;0.05;0.05;;;4.80;99.90;;;;;;5073185;28;20255;-60
2023/04/26 04:51:20;;;;;;;0.40;0.40;;;4.80;99.90;;;;;;5087096;28;20200;-60
2023/04/26 04:53:45;;;;;;;0.00;0.00;;;4.80;99.90;;;;;;5093513;28;20237;-63
2023/04/26 04:56:11;;;;;;;0.00;0.00;;;4.80;99.90;;;;;;5093338;28;20180;-60
2023/04/26 04:58:36;;;;;;;0.00;0.00;;;4.80;99.90;;;;;;5093242;28;20172;-60
2023/04/26 05:01:02;;;;;;;0.00;0.00;;;4.80;99.90;;;;;;5093390;28;20176;-60
2023/04/26 05:03:28;;;;;;;0.00;0.00;;;4.80;99.90;;;;;;5093042;28;20234;-60
2023/04/26 05:05:53;;;;;;;0.00;0.00;;;4.80;99.90;;;;;;5093111;28;20211;-60
2023/04/26 05:08:19;;;;;;;0.00;0.00;;;4.90;99.90;;;;;;5093223;28;20213;-60
2023/04/26 05:10:44;;;;;;;0.20;0.20;;;4.90;99.90;;;;;;5093274;28;20192;-58
2023/04/26 05:13:10;;;;;;;0.00;0.00;;;5.00;99.90;;;;;;5093068;28;20207;-58
2023/04/26 05:15:35;;;;;;;0.13;0.13;;;5.00;99.90;;;;;;5093269;28;20183;-58
2023/04/26 05:18:01;;;;;;;0.00;0.00;;;5.10;99.90;;;;;;5093176;28;20249;-59
2023/04/26 05:20:27;;;;;;;0.00;0.00;;;5.10;99.90;;;;;;5092885;28;20167;-58
2023/04/26 05:22:52;;;;;;;0.05;0.05;;;5.10;99.90;;;;;;5092786;28;20301;-59
2023/04/26 05:25:18;;;;;;;0.10;0.10;;;5.20;99.90;;;;;;5092849;28;20641;-58
2023/04/26 05:27:44;;;;;;;0.00;0.00;;;5.20;99.90;;;;;;5093063;28;20184;-60
2023/04/26 05:30:11;;;;;;;0.00;0.00;;;5.30;99.90;;;;;;5093006;28;20176;-60
2023/04/26 05:32:36;;;;;;;0.00;0.00;;;5.40;99.90;;;;;;5093016;28;20188;-60
2023/04/26 05:35:02;;;;;;;0.10;0.10;;;5.50;99.90;;;;;;5092906;28;20172;-60
2023/04/26 05:37:28;;;;;;;0.00;0.00;;;5.60;99.90;;;;;;5092831;28;20896;-60
2023/04/26 05:39:53;;;;;;;0.00;0.00;;;5.70;99.90;;;;;;5092664;28;20180;-60
2023/04/26 05:42:19;;;;;;;0.05;0.05;;;5.80;99.90;;;;;;5092608;28;20176;-60
2023/04/26 05:44:44;;;;;;;0.03;0.03;;;6.00;99.90;;;;;;5092453;28;20565;-60
2023/04/26 05:47:10;;;;;;;0.00;0.00;;;6.00;99.90;;;;;;5092178;28;20173;-60
2023/04/26 05:49:35;;;;;;;0.00;0.00;;;6.10;99.90;;;;;;5092382;28;20168;-60
2023/04/26 05:52:02;;;;;;;0.00;0.00;;;6.20;99.90;;;;;;5092156;28;20188;-60
2023/04/26 05:54:28;;;;;;;0.03;0.03;;;6.40;99.90;;;;;;5077689;28;20531;-58
2023/04/26 05:56:53;;;;;;;0.00;0.00;;;6.50;99.90;;;;;;5072055;28;20184;-58
2023/04/26 05:59:19;;;;;;;0.00;0.00;;;6.60;99.90;;;;;;5070658;28;20185;-58
2023/04/26 06:01:44;;;;;;;0.00;0.00;;;6.80;99.90;;;;;;5071929;28;20173;-58
2023/04/26 06:04:10;;;;;;;0.00;0.00;;;6.90;99.90;;;;;;5071566;28;20270;-58
2023/04/26 06:06:35;;;;;;;0.00;0.00;;;7.10;99.90;;;;;;5071841;28;20181;-58
2023/04/26 06:09:01;;;;;;;0.00;0.00;;;7.50;99.90;;;;;;5071697;28;20636;-58
2023/04/26 06:11:27;;;;;;;0.00;0.00;;;7.90;99.90;;;;;;5071763;28;20517;-58
2023/04/26 06:13:52;;;;;;;0.00;0.00;;;8.20;99.90;;;;;;5071825;28;20208;-58
2023/04/26 06:16:18;;;;;;;0.00;0.00;;;8.60;99.90;;;;;;5070437;28;20770;-58
2023/04/26 06:18:43;;;;;;;0.00;0.00;;;9.00;99.90;;;;;;5071681;28;20177;-58
2023/04/26 06:21:09;;;;;;;0.05;0.05;;;9.50;99.90;;;;;;5071615;28;20521;-58
2023/04/26 06:23:34;;;;;;;0.00;0.00;;;10.30;99.90;;;;;;5071160;28;20231;-59
2023/04/26 06:26:00;;;;;;;0.00;0.00;;;11.30;99.90;;;;;;5071490;28;20268;-59
2023/04/26 06:28:25;;;;;;;0.00;0.00;;;12.30;99.90;;;;;;5071427;28;20200;-59
2023/04/26 06:30:51;;;;;;;0.00;0.00;;;13.20;99.90;;;;;;5071308;28;20259;-59
2023/04/26 06:33:16;;;;;;;0.00;0.00;;;13.90;99.90;;;;;;5071344;28;20632;-59
2023/04/26 06:35:42;;;;;;;0.00;0.00;;;14.50;99.20;;;;;;5071474;28;20181;-59
2023/04/26 06:38:08;;;;;;;0.00;0.00;;;15.10;97.90;;;;;;5071409;28;20256;-59
2023/04/26 06:40:36;;;;;;;0.00;0.00;;;15.50;96.00;;;;;;5071430;28;20628;-59
2023/04/26 06:43:02;;;;;;;0.00;0.00;;;15.90;95.40;;;;;;5071365;28;21272;-59
2023/04/26 06:45:27;;;;;;;0.00;0.00;;;16.30;94.40;;;;;;5071312;28;20219;-59
2023/04/26 06:47:53;;;;;;;0.00;0.00;;;16.90;92.60;;;;;;5071545;28;20627;-59
2023/04/26 06:50:19;;;;;;;0.00;0.00;;;17.50;90.90;;;;;;5071339;28;20173;-59
2023/04/26 06:52:44;;;;;;;0.00;0.00;;;17.80;90.10;;;;;;5090859;28;20184;-59
2023/04/26 06:55:10;;;;;;;0.00;0.00;;;18.00;87.40;;;;;;5081671;28;20179;-59
2023/04/26 06:57:36;;;;;;;0.00;0.00;;;18.20;86.20;;;;;;5091564;28;20180;-59
2023/04/26 07:00:03;;;;;;;0.00;0.00;;;18.50;82.00;;;;;;5091429;28;20176;-59
2023/04/26 07:02:28;;;;;;;0.00;0.00;;;18.90;80.90;;;;;;5091542;28;20184;-59
2023/04/26 07:04:54;;;;;;;0.00;0.00;;;19.20;78.60;;;;;;5091214;28;20211;-59
2023/04/26 07:07:20;;;;;;;0.00;0.00;;;19.60;76.40;;;;;;5091483;28;20191;-59
2023/04/26 07:09:45;;;;;;;0.00;0.00;;;19.80;73.20;;;;;;5091546;28;20255;-60
2023/04/26 07:12:11;;;;;;;0.00;0.00;;;19.90;70.60;;;;;;5091169;28;20657;-59
2023/04/26 07:14:42;;;;;;;0.00;0.00;;;20.10;70.70;;;;;;5091391;28;20176;-59
2023/04/26 07:17:08;;;;;;;0.00;0.00;;;20.30;70.30;;;;;;5091326;28;20165;-59
2023/04/26 07:19:33;;;;;;;0.00;0.00;;;20.50;67.40;;;;;;5091356;28;20270;-59
2023/04/26 07:21:59;;;;;;;0.00;0.00;;;20.70;66.60;;;;;;5091328;28;20259;-59
2023/04/26 07:24:24;;;;;;;0.00;0.00;;;20.90;65.60;;;;;;5090962;28;20243;-59
2023/04/26 07:26:50;;;;;;;0.00;0.00;;;21.30;64.50;;;;;;5091435;28;20176;-59
2023/04/26 07:29:17;;;;;;;0.00;0.00;;;21.60;62.30;;;;;;5091096;28;20551;-59
2023/04/26 07:31:43;;;;;;;0.00;0.00;;;21.70;60.90;;;;;;5091334;28;20172;-59
2023/04/26 07:34:08;;;;;;;0.00;0.00;;;21.90;59.90;;;;;;5091189;28;20179;-59
2023/04/26 07:36:34;;;;;;;0.00;0.00;;;22.10;57.60;;;;;;5091052;28;20202;-59
2023/04/26 07:39:00;;;;;;;0.00;0.00;;;22.40;58.20;;;;;;5091191;28;20183;-59
2023/04/26 07:41:25;;;;;;;0.00;0.00;;;22.70;57.00;;;;;;5091106;28;20309;-59
2023/04/26 07:43:51;;;;;;;0.00;0.00;;;22.80;55.60;;;;;;5091015;28;20667;-59
2023/04/26 07:46:17;;;;;;;0.00;0.00;;;23.10;55.10;;;;;;5090937;28;20643;-59
2023/04/26 07:48:42;;;;;;;0.00;0.00;;;23.20;53.30;;;;;;5090908;28;20190;-59
2023/04/26 07:51:10;;;;;;;0.28;0.28;;;23.20;53.00;;;;;;5090833;28;20176;-59
2023/04/26 07:53:37;;;;;;;0.00;0.00;;;23.00;51.30;;;;;;5090890;28;20168;-59
2023/04/26 07:56:05;;;;;;;0.00;0.00;;;22.20;53.20;;;;;;5091151;28;20169;-59
2023/04/26 07:58:31;;;;;;;0.00;0.00;;;22.00;53.60;;;;;;5090945;28;20646;-59
2023/04/26 08:00:57;;;;;;;0.00;0.00;;;21.90;52.60;;;;;;5090697;28;20712;-59
2023/04/26 08:03:23;;;;;;;0.00;0.00;;;21.80;52.10;;;;;;5090875;28;20169;-59
2023/04/26 08:05:48;;;;;;;0.00;0.00;;;21.70;52.10;;;;;;5091701;28;20681;-59
2023/04/26 08:08:14;;;;;;;0.10;0.10;;;21.90;52.50;;;;;;5094698;28;20176;-59
2023/04/26 08:10:40;;;;;;;0.00;0.00;;;21.90;53.90;;;;;;5094894;28;20184;-59
2023/04/26 08:13:06;;;;;;;0.00;0.00;;;21.90;51.40;;;;;;5094795;28;20217;-59
2023/04/26 08:15:31;;;;;;;0.00;0.00;;;21.50;51.20;;;;;;5094818;28;20551;-59
2023/04/26 08:17:57;;;;;;;0.00;0.00;;;21.80;50.70;;;;;;5093345;28;20171;-59
2023/04/26 08:20:22;;;;;;;0.00;0.00;;;22.10;51.00;;;;;;5094457;28;20176;-59
2023/04/26 08:22:48;;;;;;;0.00;0.00;;;22.10;46.80;;;;;;5094446;28;20168;-59
2023/04/26 08:25:14;;;;;;;0.00;0.00;;;22.10;49.40;;;;;;5092977;28;20605;-59
2023/04/26 08:27:40;;;;;;;0.00;0.00;;;22.20;48.80;;;;;;5094587;28;20172;-59
2023/04/26 08:30:06;;;;;;;0.00;0.00;;;22.30;48.30;;;;;;5094329;28;20538;-59
2023/04/26 08:32:32;;;;;;;0.00;0.00;;;22.10;48.20;;;;;;5094509;28;20179;-59
2023/04/26 08:34:59;;;;;;;0.00;0.00;;;21.90;47.50;;;;;;5094399;28;20208;-59
2023/04/26 08:37:24;;;;;;;0.00;0.00;;;21.80;49.40;;;;;;5094210;28;20172;-59
2023/04/26 08:39:50;;;;;;;0.00;0.00;;;21.90;48.80;;;;;;5094254;28;20169;-59
2023/04/26 08:42:16;;;;;;;0.00;0.00;;;22.20;49.00;;;;;;5093160;28;20172;-59
2023/04/26 08:44:43;;;;;;;0.00;0.00;;;22.00;48.10;;;;;;5093967;28;20211;-59
2023/04/26 08:47:25;;;;;;;0.00;0.00;;;22.10;48.40;;;;;;5094157;28;20270;-59
2023/04/26 08:49:58;;;;;;;0.00;0.00;;;22.20;47.80;;;;;;5094067;28;20172;-59
2023/04/26 08:52:27;;;;;;;0.00;0.00;;;21.90;47.30;;;;;;5093921;28;20271;-59
2023/04/26 08:54:55;;;;;;;0.00;0.00;;;21.60;48.70;;;;;;5093801;28;20527;-59
2023/04/26 08:57:22;;;;;;;0.00;0.00;;;21.30;48.20;;;;;;5093953;28;20261;-59
2023/04/26 08:59:48;;;;;;;0.00;0.00;;;20.90;48.00;;;;;;5094012;28;20179;-59
2023/04/26 09:02:19;;;;;;;0.00;0.00;;;20.50;47.80;;;;;;5093571;28;20196;-59
2023/04/26 09:04:46;;;;;;;0.00;0.00;;;20.00;47.70;;;;;;5093664;28;20226;-59
2023/04/26 09:07:19;;;;;;;0.00;0.00;;;19.20;46.70;;;;;;5093793;28;20161;-59
2023/04/26 09:09:51;;;;;;;0.00;0.00;;;18.30;48.70;;;;;;5093605;28;20164;-59
2023/04/26 09:12:19;;;;;;;0.00;0.00;;;17.40;48.90;;;;;;5093461;28;20180;-59
2023/04/26 09:14:45;;;;;;;0.00;0.00;;;17.50;52.40;;;;;;5093646;28;20172;-59
2023/04/26 09:17:31;;;;;;;0.00;0.00;;;18.10;51.50;;;;;;5093220;28;20180;-59
2023/04/26 09:20:00;;;;;;;0.00;0.00;;;18.60;47.70;;;;;;5093531;28;20168;-59
2023/04/26 09:22:29;;;;;;;0.00;0.00;;;18.70;47.30;;;;;;5093433;28;20179;-59
2023/04/26 09:24:54;;;;;;;0.00;0.00;;;18.70;47.20;;;;;;5093029;28;20306;-59
2023/04/26 09:27:20;;;;;;;0.00;0.00;;;18.50;49.20;;;;;;5093264;28;20258;-59
2023/04/26 09:30:00;;;;;;;0.00;0.00;;;18.50;49.90;;;;;;5093226;28;20164;-59
2023/04/26 09:32:25;;;;;;;0.00;0.00;;;18.50;49.10;;;;;;5093384;28;20164;-59
2023/04/26 09:34:51;;;;;;;0.00;0.00;;;18.20;50.20;;;;;;5093067;28;20180;-59
2023/04/26 09:37:17;;;;;;;0.00;0.00;;;17.60;49.00;;;;;;5092918;28;20176;-59
2023/04/26 09:39:42;;;;;;;0.00;0.00;;;17.20;49.50;;;;;;5092986;28;20226;-59
2023/04/26 09:42:12;;;;;;;0.00;0.00;;;17.20;51.00;;;;;;5092887;28;20181;-59
2023/04/26 09:44:38;;;;;;;0.00;0.00;;;16.90;49.90;;;;;;5092692;28;20220;-59
2023/04/26 09:47:06;;;;;;;0.03;0.03;;;17.00;52.10;;;;;;5092670;28;20180;-59
2023/04/26 09:49:43;;;;;;;0.10;0.00;;;17.10;50.00;;;;;;5092562;28;20309;-59
2023/04/26 09:52:08;;;;;;;0.00;0.00;;;17.10;49.70;;;;;;5092716;28;20266;-59
2023/04/26 09:54:42;;;;;;;0.00;0.00;;;17.00;50.40;;;;;;5092611;28;20260;-59
2023/04/26 09:57:09;;;;;;;0.00;0.00;;;17.40;49.30;;;;;;5092827;28;20203;-59
2023/04/26 09:59:39;;;;;;;0.00;0.00;;;17.80;50.40;;;;;;5092538;28;20168;-59
2023/04/26 10:02:12;;;;;;;0.00;0.00;;;18.20;51.40;;;;;;5092527;28;20260;-59
2023/04/26 10:04:38;;;;;;;0.08;0.08;;;18.50;49.50;;;;;;5092304;28;20219;-59
2023/04/26 10:07:04;;;;;;;0.00;0.00;;;18.80;48.10;;;;;;5092594;28;20176;-59
2023/04/26 10:09:31;;;;;;;0.00;0.00;;;19.00;48.00;;;;;;5092482;28;20627;-59
2023/04/26 10:11:58;;;;;;;0.00;0.00;;;18.50;47.40;;;;;;5091164;28;20180;-59
2023/04/26 10:14:25;;;;;;;0.00;0.00;;;18.10;47.40;;;;;;5091051;28;20214;-59
2023/04/26 10:16:51;;;;;;;0.00;0.00;;;18.10;47.90;;;;;;5092471;28;20196;-59
2023/04/26 10:19:18;;;;;;;0.00;0.00;;;18.00;49.90;;;;;;5092348;28;20214;-59
2023/04/26 10:21:45;;;;;;;0.00;0.00;;;18.20;49.50;;;;;;5092439;28;20171;-59
2023/04/26 10:24:11;;;;;;;0.00;0.00;;;18.30;49.90;;;;;;5091898;28;20238;-59
2023/04/26 10:26:51;;;;;;;0.00;0.00;;;18.20;48.40;;;;;;5092245;28;20172;-59
2023/04/26 10:29:18;;;;;;;0.00;0.00;;;17.90;47.20;;;;;;5091280;28;20519;-59
2023/04/26 10:32:03;;;;;;;0.00;0.00;;;17.90;48.10;;;;;;5092210;28;20171;-59
2023/04/26 10:34:30;;;;;;;0.00;0.00;;;18.10;48.70;;;;;;5091984;28;20531;-59
2023/04/26 10:37:17;;;;;;;0.00;0.00;;;18.40;47.30;;;;;;5091933;28;20195;-61
2023/04/26 10:39:44;;;;;;;0.00;0.00;;;18.60;50.10;;;;;;5092075;28;20160;-58
2023/04/26 10:42:22;;;;;;;0.00;0.00;;;18.60;48.60;;;;;;5091817;28;20199;-58
2023/04/26 10:44:49;;;;;;;0.00;0.00;;;18.80;47.30;;;;;;5091608;28;20218;-58
2023/04/26 10:47:33;;;;;;;0.00;0.00;;;19.00;46.30;;;;;;5091575;28;20176;-58
2023/04/26 10:50:11;;;;;;;0.00;0.00;;;18.90;45.50;;;;;;5091848;28;20172;-58
2023/04/26 10:53:04;;;;;;;0.00;0.00;;;19.00;46.00;;;;;;5087490;28;20260;-58
2023/04/26 10:55:43;;;;;;;0.00;0.00;;;19.10;46.90;;;;;;5087385;28;20187;-58
2023/04/26 10:58:29;;;;;;;0.00;0.00;;;19.10;44.30;;;;;;5091743;28;20187;-58
2023/04/26 11:01:10;;;;;;;0.00;0.00;;;18.90;44.90;;;;;;5091523;28;20190;-58
2023/04/26 11:03:37;;;;;;;0.00;0.00;;;19.20;45.70;;;;;;5091608;28;20286;-58
2023/04/26 11:06:25;;;;;;;0.05;0.05;;;19.10;43.90;;;;;;5091466;28;20572;-58
2023/04/26 11:08:52;;;;;;;0.00;0.00;;;19.20;45.00;;;;;;5091680;28;20164;-58
2023/04/26 11:11:18;;;;;;;0.00;0.00;;;19.20;45.40;;;;;;5091225;28;20176;-58
2023/04/26 11:13:45;;;;;;;0.22;0.10;;;19.40;44.00;;;;;;5091588;28;20172;-58
2023/04/26 11:16:16;;;;;;;0.00;0.00;;;19.40;42.30;;;;;;5091340;28;20199;-58
2023/04/26 11:18:44;;;;;;;0.00;0.00;;;19.60;43.80;;;;;;5091418;28;20627;-58
2023/04/26 11:21:11;;;;;;;0.00;0.00;;;19.80;44.00;;;;;;5091208;28;20172;-58
2023/04/26 11:23:37;;;;;;;0.00;0.00;;;19.90;43.20;;;;;;5091035;28;20682;-58
2023/04/26 11:26:07;;;;;;;0.00;0.00;;;20.00;42.50;;;;;;5091217;28;20176;-58
2023/04/26 11:28:35;;;;;;;0.03;0.03;;;20.00;42.80;;;;;;5091223;28;20176;-58
2023/04/26 11:31:03;;;;;;;0.00;0.00;;;20.20;42.70;;;;;;5091092;28;20184;-58
2023/04/26 11:33:29;;;;;;;0.00;0.00;;;20.00;40.20;;;;;;5091204;28;20707;-58
2023/04/26 11:35:57;;;;;;;0.00;0.00;;;19.90;41.10;;;;;;5090948;28;20194;-59
2023/04/26 11:38:24;;;;;;;0.00;0.00;;;19.90;41.10;;;;;;5091024;28;20184;-59
2023/04/26 11:40:58;;;;;;;0.00;0.00;;;19.40;41.20;;;;;;5093564;28;20175;-59
2023/04/26 11:43:36;;;;;;;0.00;0.00;;;19.40;42.30;;;;;;5095118;28;20251;-59
2023/04/26 11:46:03;;;;;;;0.00;0.00;;;19.50;42.90;;;;;;5095234;28;20172;-59
2023/04/26 11:48:30;;;;;;;0.00;0.00;;;19.60;41.30;;;;;;5095207;28;20697;-59
2023/04/26 11:50:58;;;;;;;0.08;0.08;;;19.50;41.60;;;;;;5094865;28;20176;-59
2023/04/26 11:53:23;;;;;;;0.00;0.00;;;19.40;41.70;;;;;;5095185;28;20247;-60
2023/04/26 11:55:50;;;;;;;0.00;0.00;;;19.50;42.60;;;;;;5089981;28;20325;-58
2023/04/26 11:58:16;;;;;;;0.00;0.00;;;19.50;43.80;;;;;;5089755;28;20184;-58
2023/04/26 12:00:55;;;;;;;0.00;0.00;;;19.70;43.30;;;;;;5092197;28;20172;-58
2023/04/26 12:03:22;;;;;;;0.00;0.00;;;19.70;42.60;;;;;;5094730;28;20187;-58
2023/04/26 12:05:55;;;;;;;0.00;0.00;;;19.80;44.40;;;;;;5077846;28;20185;-58
2023/04/26 12:08:24;;;;;;;0.00;0.00;;;19.60;41.90;;;;;;5074402;28;20185;-58
2023/04/26 12:10:50;;;;;;;0.00;0.00;;;19.30;41.90;;;;;;5074556;28;20694;-58
2023/04/26 12:13:16;;;;;;;0.00;0.00;;;19.00;43.60;;;;;;5074308;28;20179;-58
2023/04/26 12:15:41;;;;;;;0.00;0.00;;;18.60;43.70;;;;;;5074450;28;20258;-58
2023/04/26 12:18:08;;;;;;;0.00;0.00;;;18.50;44.20;;;;;;5074437;28;20663;-58
2023/04/26 12:20:36;;;;;;;0.00;0.00;;;18.50;44.50;;;;;;5074243;28;20176;-58
2023/04/26 12:23:10;;;;;;;0.00;0.00;;;18.80;45.80;;;;;;5074186;28;20299;-58
2023/04/26 12:25:38;;;;;;;0.75;0.75;;;19.20;44.80;;;;;;5074019;28;20209;-58
2023/04/26 12:28:10;;;;;;;0.10;0.10;;;19.40;44.90;;;;;;5074158;28;20183;-58
2023/04/26 12:30:36;;;;;;;0.00;0.00;;;18.60;43.80;;;;;;5074101;28;20602;-57
2023/04/26 12:33:01;;;;;;;0.00;0.00;;;18.50;46.30;;;;;;5074125;28;20248;-58
2023/04/26 12:35:27;;;;;;;0.00;0.00;;;18.50;45.60;;;;;;5074020;28;20181;-58
2023/04/26 12:37:55;;;;;;;0.00;0.00;;;18.40;46.00;;;;;;5073822;28;20686;-59
2023/04/26 12:40:24;;;;;;;0.00;0.00;;;18.30;45.60;;;;;;5073908;28;20168;-59
2023/04/26 12:42:49;;;;;;;0.00;0.00;;;18.50;45.70;;;;;;5073972;28;21167;-59
2023/04/26 12:45:17;;;;;;;0.00;0.00;;;18.20;44.80;;;;;;5073588;28;20307;-59
2023/04/26 12:47:44;;;;;;;0.00;0.00;;;18.20;46.40;;;;;;5073922;28;20201;-59
2023/04/26 12:50:11;;;;;;;0.00;0.00;;;18.50;45.80;;;;;;5073686;28;20177;-59
2023/04/26 12:52:38;;;;;;;0.00;0.00;;;18.90;45.30;;;;;;5091420;28;20259;-59